sensor_id;sensor_type;location;lat;lon;timestamp;temperature;humidity
59923;DHT22;45778;51.142;3.732;2023-05-07T00:02:21;16.80;99.90
59923;DHT22;45778;51.142;3.732;2023-05-07T00:04:48;16.80;99.90
59923;DHT22;45778;51.142;3.732;2023-05-07T00:07:14;16.80;99.90
59923;DHT22;45778;51.142;3.732;2023-05-07T00:09:40;16.90;99.90
59923;DHT22;45778;51.142;3.732;2023-05-07T00:12:06;17.00;99.90
59923;DHT22;45778;51.142;3.732;2023-05-07T00:14:31;16.90;99.90
59923;DHT22;45778;51.142;3.732;2023-05-07T00:16:57;17.00;99.90
59923;DHT22;45778;51.142;3.732;2023-05-07T00:19:23;17.00;99.90
59923;DHT22;45778;51.142;3.732;2023-05-07T00:21:48;17.10;99.90
59923;DHT22;45778;51.142;3.732;2023-05-07T00:24:14;17.00;99.90
59923;DHT22;45778;51.142;3.732;2023-05-07T00:26:40;17.00;99.90
59923;DHT22;45778;51.142;3.732;2023-05-07T00:29:05;17.00;99.90
59923;DHT22;45778;51.142;3.732;2023-05-07T00:31:31;17.00;99.90
59923;DHT22;45778;51.142;3.732;2023-05-07T00:33:57;17.10;99.90
59923;DHT22;45778;51.142;3.732;2023-05-07T00:36:22;17.00;99.90
59923;DHT22;45778;51.142;3.732;2023-05-07T00:38:48;16.90;99.90
59923;DHT22;45778;51.142;3.732;2023-05-07T00:41:13;16.90;99.90
59923;DHT22;45778;51.142;3.732;2023-05-07T00:43:39;16.90;99.90
59923;DHT22;45778;51.142;3.732;2023-05-07T00:46:05;16.90;99.90
59923;DHT22;45778;51.142;3.732;2023-05-07T00:48:31;16.90;99.90
59923;DHT22;45778;51.142;3.732;2023-05-07T00:50:57;16.90;99.90
59923;DHT22;45778;51.142;3.732;2023-05-07T00:53:23;16.90;99.90
59923;DHT22;45778;51.142;3.732;2023-05-07T00:55:48;16.90;99.90
59923;DHT22;45778;51.142;3.732;2023-05-07T00:58:14;16.90;99.90
59923;DHT22;45778;51.142;3.732;2023-05-07T01:00:40;16.80;99.90
59923;DHT22;45778;51.142;3.732;2023-05-07T01:03:06;16.80;99.90
59923;DHT22;45778;51.142;3.732;2023-05-07T01:05:31;16.80;99.90
59923;DHT22;45778;51.142;3.732;2023-05-07T01:07:58;16.70;99.90
59923;DHT22;45778;51.142;3.732;2023-05-07T01:10:25;16.60;99.90
59923;DHT22;45778;51.142;3.732;2023-05-07T01:12:51;16.50;99.90
59923;DHT22;45778;51.142;3.732;2023-05-07T01:15:17;16.50;99.90
59923;DHT22;45778;51.142;3.732;2023-05-07T01:17:44;16.50;99.90
59923;DHT22;45778;51.142;3.732;2023-05-07T01:20:10;16.50;99.90
59923;DHT22;45778;51.142;3.732;2023-05-07T01:22:37;16.40;99.90
59923;DHT22;45778;51.142;3.732;2023-05-07T01:25:04;16.40;99.90
59923;DHT22;45778;51.142;3.732;2023-05-07T01:27:30;16.40;99.90
59923;DHT22;45778;51.142;3.732;2023-05-07T01:29:56;16.30;99.90
59923;DHT22;45778;51.142;3.732;2023-05-07T01:32:29;16.30;99.90
59923;DHT22;45778;51.142;3.732;2023-05-07T01:34:57;16.40;99.90
59923;DHT22;45778;51.142;3.732;2023-05-07T01:37:24;16.30;99.90
59923;DHT22;45778;51.142;3.732;2023-05-07T01:39:52;16.30;99.90
59923;DHT22;45778;51.142;3.732;2023-05-07T01:42:17;16.30;99.90
59923;DHT22;45778;51.142;3.732;2023-05-07T01:44:43;16.30;99.90
59923;DHT22;45778;51.142;3.732;2023-05-07T01:47:09;16.40;99.90
59923;DHT22;45778;51.142;3.732;2023-05-07T01:49:35;16.40;99.90
59923;DHT22;45778;51.142;3.732;2023-05-07T01:52:01;16.40;99.90
59923;DHT22;45778;51.142;3.732;2023-05-07T01:54:27;16.40;99.90
59923;DHT22;45778;51.142;3.732;2023-05-07T01:56:53;16.30;99.90
59923;DHT22;45778;51.142;3.732;2023-05-07T01:59:19;16.30;99.90
59923;DHT22;45778;51.142;3.732;2023-05-07T02:01:44;16.30;99.90
59923;DHT22;45778;51.142;3.732;2023-05-07T02:04:10;16.20;99.90
59923;DHT22;45778;51.142;3.732;2023-05-07T02:06:36;16.10;99.90
59923;DHT22;45778;51.142;3.732;2023-05-07T02:09:01;16.10;99.90
59923;DHT22;45778;51.142;3.732;2023-05-07T02:11:27;16.20;99.90
59923;DHT22;45778;51.142;3.732;2023-05-07T02:13:53;16.20;99.90
59923;DHT22;45778;51.142;3.732;2023-05-07T02:16:18;16.30;99.90
59923;DHT22;45778;51.142;3.732;2023-05-07T02:18:45;16.20;99.90
59923;DHT22;45778;51.142;3.732;2023-05-07T02:21:10;16.20;99.90
59923;DHT22;45778;51.142;3.732;2023-05-07T02:23:36;16.10;99.90
59923;DHT22;45778;51.142;3.732;2023-05-07T02:26:03;16.10;99.90
59923;DHT22;45778;51.142;3.732;2023-05-07T02:28:29;16.10;99.90
59923;DHT22;45778;51.142;3.732;2023-05-07T02:30:54;16.10;99.90
59923;DHT22;45778;51.142;3.732;2023-05-07T02:33:20;16.10;99.90
59923;DHT22;45778;51.142;3.732;2023-05-07T02:35:46;16.10;99.90
59923;DHT22;45778;51.142;3.732;2023-05-07T02:38:11;16.10;99.90
59923;DHT22;45778;51.142;3.732;2023-05-07T02:40:37;16.00;99.90
59923;DHT22;45778;51.142;3.732;2023-05-07T02:43:05;16.00;99.90
59923;DHT22;45778;51.142;3.732;2023-05-07T02:45:32;16.00;99.90
59923;DHT22;45778;51.142;3.732;2023-05-07T02:47:58;16.00;99.90
59923;DHT22;45778;51.142;3.732;2023-05-07T02:50:24;16.00;99.90
59923;DHT22;45778;51.142;3.732;2023-05-07T02:52:50;16.00;99.90
59923;DHT22;45778;51.142;3.732;2023-05-07T02:55:16;16.00;99.90
59923;DHT22;45778;51.142;3.732;2023-05-07T02:57:41;15.90;99.90
59923;DHT22;45778;51.142;3.732;2023-05-07T03:00:15;15.90;99.90
59923;DHT22;45778;51.142;3.732;2023-05-07T03:02:41;15.90;99.90
59923;DHT22;45778;51.142;3.732;2023-05-07T03:05:07;15.80;99.90
59923;DHT22;45778;51.142;3.732;2023-05-07T03:07:34;15.80;99.90
59923;DHT22;45778;51.142;3.732;2023-05-07T03:09:59;15.90;99.90
59923;DHT22;45778;51.142;3.732;2023-05-07T03:12:25;15.90;99.90
59923;DHT22;45778;51.142;3.732;2023-05-07T03:14:51;15.90;99.90
59923;DHT22;45778;51.142;3.732;2023-05-07T03:17:16;15.90;99.90
59923;DHT22;45778;51.142;3.732;2023-05-07T03:19:42;15.90;99.90
59923;DHT22;45778;51.142;3.732;2023-05-07T03:22:07;16.00;99.90
59923;DHT22;45778;51.142;3.732;2023-05-07T03:24:33;15.90;99.90
59923;DHT22;45778;51.142;3.732;2023-05-07T03:26:58;15.90;99.90
59923;DHT22;45778;51.142;3.732;2023-05-07T03:29:26;16.00;99.90
59923;DHT22;45778;51.142;3.732;2023-05-07T03:31:52;15.90;99.90
59923;DHT22;45778;51.142;3.732;2023-05-07T03:34:17;16.00;99.90
59923;DHT22;45778;51.142;3.732;2023-05-07T03:36:51;16.00;99.90
59923;DHT22;45778;51.142;3.732;2023-05-07T03:39:16;15.90;99.90
59923;DHT22;45778;51.142;3.732;2023-05-07T03:41:42;16.00;99.90
59923;DHT22;45778;51.142;3.732;2023-05-07T03:44:08;15.90;99.90
59923;DHT22;45778;51.142;3.732;2023-05-07T03:46:34;15.90;99.90
59923;DHT22;45778;51.142;3.732;2023-05-07T03:49:00;15.90;99.90
59923;DHT22;45778;51.142;3.732;2023-05-07T03:51:25;15.90;99.90
59923;DHT22;45778;51.142;3.732;2023-05-07T03:53:52;15.80;99.90
59923;DHT22;45778;51.142;3.732;2023-05-07T03:56:22;15.80;99.90
59923;DHT22;45778;51.142;3.732;2023-05-07T03:58:52;15.80;99.90
59923;DHT22;45778;51.142;3.732;2023-05-07T04:01:17;15.80;99.90
59923;DHT22;45778;51.142;3.732;2023-05-07T04:03:43;15.70;99.90
59923;DHT22;45778;51.142;3.732;2023-05-07T04:06:08;15.70;99.90
59923;DHT22;45778;51.142;3.732;2023-05-07T04:08:34;15.80;99.90
59923;DHT22;45778;51.142;3.732;2023-05-07T04:11:00;15.80;99.90
59923;DHT22;45778;51.142;3.732;2023-05-07T04:13:25;15.70;99.90
59923;DHT22;45778;51.142;3.732;2023-05-07T04:15:52;15.70;99.90
59923;DHT22;45778;51.142;3.732;2023-05-07T04:18:18;15.70;99.90
59923;DHT22;45778;51.142;3.732;2023-05-07T04:20:43;15.70;99.90
59923;DHT22;45778;51.142;3.732;2023-05-07T04:23:09;15.70;99.90
59923;DHT22;45778;51.142;3.732;2023-05-07T04:25:35;15.70;99.90
59923;DHT22;45778;51.142;3.732;2023-05-07T04:28:01;15.80;99.90
59923;DHT22;45778;51.142;3.732;2023-05-07T04:30:26;15.90;99.90
59923;DHT22;45778;51.142;3.732;2023-05-07T04:32:52;15.90;99.90
59923;DHT22;45778;51.142;3.732;2023-05-07T04:35:18;15.90;99.90
59923;DHT22;45778;51.142;3.732;2023-05-07T04:37:44;15.90;99.90
59923;DHT22;45778;51.142;3.732;2023-05-07T04:40:10;15.90;99.90
59923;DHT22;45778;51.142;3.732;2023-05-07T04:42:35;15.90;99.90
59923;DHT22;45778;51.142;3.732;2023-05-07T04:45:01;15.90;99.90
59923;DHT22;45778;51.142;3.732;2023-05-07T04:47:27;15.80;99.90
59923;DHT22;45778;51.142;3.732;2023-05-07T04:49:53;15.90;99.90
59923;DHT22;45778;51.142;3.732;2023-05-07T04:52:18;16.00;99.90
59923;DHT22;45778;51.142;3.732;2023-05-07T04:54:44;16.00;99.90
59923;DHT22;45778;51.142;3.732;2023-05-07T04:57:10;16.10;99.90
59923;DHT22;45778;51.142;3.732;2023-05-07T04:59:35;16.10;99.90
59923;DHT22;45778;51.142;3.732;2023-05-07T05:02:01;16.20;99.90
59923;DHT22;45778;51.142;3.732;2023-05-07T05:04:27;16.20;99.90
59923;DHT22;45778;51.142;3.732;2023-05-07T05:06:52;16.30;99.90
59923;DHT22;45778;51.142;3.732;2023-05-07T05:09:18;16.40;99.90
59923;DHT22;45778;51.142;3.732;2023-05-07T05:11:44;16.40;99.90
59923;DHT22;45778;51.142;3.732;2023-05-07T05:14:10;16.50;99.90
59923;DHT22;45778;51.142;3.732;2023-05-07T05:16:35;16.40;99.90
59923;DHT22;45778;51.142;3.732;2023-05-07T05:19:02;16.40;99.90
59923;DHT22;45778;51.142;3.732;2023-05-07T05:21:28;16.30;99.90
59923;DHT22;45778;51.142;3.732;2023-05-07T05:23:53;16.30;99.90
59923;DHT22;45778;51.142;3.732;2023-05-07T05:26:19;16.40;99.90
59923;DHT22;45778;51.142;3.732;2023-05-07T05:28:46;16.40;99.90
59923;DHT22;45778;51.142;3.732;2023-05-07T05:31:12;16.50;99.90
59923;DHT22;45778;51.142;3.732;2023-05-07T05:33:37;16.50;99.90
59923;DHT22;45778;51.142;3.732;2023-05-07T05:36:03;16.40;99.90
59923;DHT22;45778;51.142;3.732;2023-05-07T05:38:29;16.30;99.90
59923;DHT22;45778;51.142;3.732;2023-05-07T05:40:55;16.40;99.90
59923;DHT22;45778;51.142;3.732;2023-05-07T05:43:21;16.30;99.90
59923;DHT22;45778;51.142;3.732;2023-05-07T05:45:46;16.30;99.90
59923;DHT22;45778;51.142;3.732;2023-05-07T05:48:12;16.30;99.90
59923;DHT22;45778;51.142;3.732;2023-05-07T05:50:37;16.40;99.90
59923;DHT22;45778;51.142;3.732;2023-05-07T05:53:03;16.40;99.90
59923;DHT22;45778;51.142;3.732;2023-05-07T05:55:29;16.30;99.90
59923;DHT22;45778;51.142;3.732;2023-05-07T05:57:55;16.40;99.90
59923;DHT22;45778;51.142;3.732;2023-05-07T06:00:22;16.30;99.90
59923;DHT22;45778;51.142;3.732;2023-05-07T06:02:48;16.30;99.90
59923;DHT22;45778;51.142;3.732;2023-05-07T06:05:14;16.10;99.90
59923;DHT22;45778;51.142;3.732;2023-05-07T06:07:40;16.10;99.90
59923;DHT22;45778;51.142;3.732;2023-05-07T06:10:06;16.00;99.90
59923;DHT22;45778;51.142;3.732;2023-05-07T06:12:32;15.90;99.90
59923;DHT22;45778;51.142;3.732;2023-05-07T06:14:57;16.00;99.90
59923;DHT22;45778;51.142;3.732;2023-05-07T06:17:23;16.10;99.90
59923;DHT22;45778;51.142;3.732;2023-05-07T06:19:49;16.30;99.90
59923;DHT22;45778;51.142;3.732;2023-05-07T06:22:14;16.30;99.90
59923;DHT22;45778;51.142;3.732;2023-05-07T06:24:40;16.30;99.90
59923;DHT22;45778;51.142;3.732;2023-05-07T06:27:06;16.30;99.90
59923;DHT22;45778;51.142;3.732;2023-05-07T06:29:31;16.20;99.90
59923;DHT22;45778;51.142;3.732;2023-05-07T06:32:11;16.00;99.90
59923;DHT22;45778;51.142;3.732;2023-05-07T06:34:37;15.90;99.90
59923;DHT22;45778;51.142;3.732;2023-05-07T06:37:02;15.80;99.90
59923;DHT22;45778;51.142;3.732;2023-05-07T06:39:28;15.70;99.90
59923;DHT22;45778;51.142;3.732;2023-05-07T06:41:54;15.70;99.90
59923;DHT22;45778;51.142;3.732;2023-05-07T06:44:19;15.60;99.90
59923;DHT22;45778;51.142;3.732;2023-05-07T06:46:45;15.70;99.90
59923;DHT22;45778;51.142;3.732;2023-05-07T06:49:13;15.50;99.90
59923;DHT22;45778;51.142;3.732;2023-05-07T06:51:38;15.50;99.90
59923;DHT22;45778;51.142;3.732;2023-05-07T06:54:04;15.50;99.90
59923;DHT22;45778;51.142;3.732;2023-05-07T06:56:30;15.50;99.90
59923;DHT22;45778;51.142;3.732;2023-05-07T06:58:56;15.60;99.90
59923;DHT22;45778;51.142;3.732;2023-05-07T07:01:22;15.50;99.90
59923;DHT22;45778;51.142;3.732;2023-05-07T07:03:47;15.50;99.90
59923;DHT22;45778;51.142;3.732;2023-05-07T07:06:13;15.60;99.90
59923;DHT22;45778;51.142;3.732;2023-05-07T07:08:39;15.50;99.90
59923;DHT22;45778;51.142;3.732;2023-05-07T07:11:08;15.60;99.90
59923;DHT22;45778;51.142;3.732;2023-05-07T07:13:34;15.60;99.90
59923;DHT22;45778;51.142;3.732;2023-05-07T07:16:00;15.80;99.90
59923;DHT22;45778;51.142;3.732;2023-05-07T07:18:25;15.80;99.90
59923;DHT22;45778;51.142;3.732;2023-05-07T07:20:51;15.80;99.90
59923;DHT22;45778;51.142;3.732;2023-05-07T07:23:17;15.80;99.90
59923;DHT22;45778;51.142;3.732;2023-05-07T07:25:42;15.80;99.90
59923;DHT22;45778;51.142;3.732;2023-05-07T07:28:08;15.80;99.90
59923;DHT22;45778;51.142;3.732;2023-05-07T07:30:34;15.90;99.90
59923;DHT22;45778;51.142;3.732;2023-05-07T07:32:59;15.90;99.90
59923;DHT22;45778;51.142;3.732;2023-05-07T07:35:31;15.90;99.90
59923;DHT22;45778;51.142;3.732;2023-05-07T07:37:57;16.00;99.90
59923;DHT22;45778;51.142;3.732;2023-05-07T07:40:23;16.00;99.90
59923;DHT22;45778;51.142;3.732;2023-05-07T07:42:48;16.10;99.90
59923;DHT22;45778;51.142;3.732;2023-05-07T07:45:14;16.10;99.90
59923;DHT22;45778;51.142;3.732;2023-05-07T07:47:40;16.20;99.90
59923;DHT22;45778;51.142;3.732;2023-05-07T07:50:07;16.30;99.90
59923;DHT22;45778;51.142;3.732;2023-05-07T07:52:33;16.30;99.90
59923;DHT22;45778;51.142;3.732;2023-05-07T07:54:59;16.30;99.90
59923;DHT22;45778;51.142;3.732;2023-05-07T07:57:24;16.30;99.90
59923;DHT22;45778;51.142;3.732;2023-05-07T07:59:50;16.30;99.90
59923;DHT22;45778;51.142;3.732;2023-05-07T08:02:16;16.40;99.90
59923;DHT22;45778;51.142;3.732;2023-05-07T08:04:42;16.30;99.90
59923;DHT22;45778;51.142;3.732;2023-05-07T08:07:11;16.20;99.90
59923;DHT22;45778;51.142;3.732;2023-05-07T08:09:40;16.20;99.90
59923;DHT22;45778;51.142;3.732;2023-05-07T08:12:06;16.30;99.90
59923;DHT22;45778;51.142;3.732;2023-05-07T08:14:32;16.20;99.90
59923;DHT22;45778;51.142;3.732;2023-05-07T08:16:58;16.30;99.90
59923;DHT22;45778;51.142;3.732;2023-05-07T08:19:24;16.40;99.90
59923;DHT22;45778;51.142;3.732;2023-05-07T08:21:50;16.40;99.90
59923;DHT22;45778;51.142;3.732;2023-05-07T08:24:16;16.60;99.90
59923;DHT22;45778;51.142;3.732;2023-05-07T08:26:42;16.70;99.90
59923;DHT22;45778;51.142;3.732;2023-05-07T08:29:08;16.60;99.90
59923;DHT22;45778;51.142;3.732;2023-05-07T08:31:34;16.60;99.90
59923;DHT22;45778;51.142;3.732;2023-05-07T08:33:59;16.80;99.90
59923;DHT22;45778;51.142;3.732;2023-05-07T08:36:25;16.90;99.90
59923;DHT22;45778;51.142;3.732;2023-05-07T08:38:51;17.10;99.90
59923;DHT22;45778;51.142;3.732;2023-05-07T08:41:18;17.10;99.90
59923;DHT22;45778;51.142;3.732;2023-05-07T08:43:48;16.90;99.90
59923;DHT22;45778;51.142;3.732;2023-05-07T08:46:20;16.90;99.90
59923;DHT22;45778;51.142;3.732;2023-05-07T08:48:50;17.00;99.90
59923;DHT22;45778;51.142;3.732;2023-05-07T08:51:18;17.30;99.90
59923;DHT22;45778;51.142;3.732;2023-05-07T08:53:45;17.30;99.90
59923;DHT22;45778;51.142;3.732;2023-05-07T08:56:12;17.30;99.90
59923;DHT22;45778;51.142;3.732;2023-05-07T08:58:38;17.30;99.90
59923;DHT22;45778;51.142;3.732;2023-05-07T09:01:07;17.30;99.90
59923;DHT22;45778;51.142;3.732;2023-05-07T09:03:33;17.50;99.90
59923;DHT22;45778;51.142;3.732;2023-05-07T09:05:59;17.50;99.90
59923;DHT22;45778;51.142;3.732;2023-05-07T09:08:26;17.60;99.90
59923;DHT22;45778;51.142;3.732;2023-05-07T09:10:52;17.90;99.90
59923;DHT22;45778;51.142;3.732;2023-05-07T09:13:19;17.90;99.90
59923;DHT22;45778;51.142;3.732;2023-05-07T09:15:44;17.80;99.90
59923;DHT22;45778;51.142;3.732;2023-05-07T09:18:10;18.00;99.90
59923;DHT22;45778;51.142;3.732;2023-05-07T09:20:40;18.20;99.90
59923;DHT22;45778;51.142;3.732;2023-05-07T09:23:06;18.40;99.90
59923;DHT22;45778;51.142;3.732;2023-05-07T09:25:33;18.60;99.90
59923;DHT22;45778;51.142;3.732;2023-05-07T09:28:04;18.60;99.90
59923;DHT22;45778;51.142;3.732;2023-05-07T09:30:33;18.80;99.90
59923;DHT22;45778;51.142;3.732;2023-05-07T09:33:01;18.70;99.90
59923;DHT22;45778;51.142;3.732;2023-05-07T09:35:27;18.60;99.90
59923;DHT22;45778;51.142;3.732;2023-05-07T09:37:59;18.80;99.90
59923;DHT22;45778;51.142;3.732;2023-05-07T09:40:29;18.90;99.90
59923;DHT22;45778;51.142;3.732;2023-05-07T09:42:56;18.90;99.90
59923;DHT22;45778;51.142;3.732;2023-05-07T09:45:28;19.10;99.90
59923;DHT22;45778;51.142;3.732;2023-05-07T09:47:56;19.40;99.90
59923;DHT22;45778;51.142;3.732;2023-05-07T09:50:46;19.40;99.90
59923;DHT22;45778;51.142;3.732;2023-05-07T09:53:14;19.70;99.90
59923;DHT22;45778;51.142;3.732;2023-05-07T09:55:41;19.80;99.90
59923;DHT22;45778;51.142;3.732;2023-05-07T09:58:07;19.70;99.90
59923;DHT22;45778;51.142;3.732;2023-05-07T10:00:35;19.40;99.90
59923;DHT22;45778;51.142;3.732;2023-05-07T10:03:02;19.50;99.90
59923;DHT22;45778;51.142;3.732;2023-05-07T10:05:28;19.50;99.90
59923;DHT22;45778;51.142;3.732;2023-05-07T10:07:55;19.70;99.90
59923;DHT22;45778;51.142;3.732;2023-05-07T10:10:23;19.90;99.90
59923;DHT22;45778;51.142;3.732;2023-05-07T10:12:50;20.40;99.90
59923;DHT22;45778;51.142;3.732;2023-05-07T10:15:16;20.70;99.90
59923;DHT22;45778;51.142;3.732;2023-05-07T10:17:42;20.60;99.90
59923;DHT22;45778;51.142;3.732;2023-05-07T10:20:11;20.20;99.90
59923;DHT22;45778;51.142;3.732;2023-05-07T10:22:45;20.10;99.90
59923;DHT22;45778;51.142;3.732;2023-05-07T10:25:31;20.70;99.90
59923;DHT22;45778;51.142;3.732;2023-05-07T10:28:04;21.00;99.90
59923;DHT22;45778;51.142;3.732;2023-05-07T10:33:22;21.20;99.90
59923;DHT22;45778;51.142;3.732;2023-05-07T10:35:49;21.40;99.90
59923;DHT22;45778;51.142;3.732;2023-05-07T10:38:15;21.00;99.90
59923;DHT22;45778;51.142;3.732;2023-05-07T10:40:41;21.50;99.90
59923;DHT22;45778;51.142;3.732;2023-05-07T10:43:07;21.70;99.90
59923;DHT22;45778;51.142;3.732;2023-05-07T10:45:32;21.50;99.90
59923;DHT22;45778;51.142;3.732;2023-05-07T10:48:12;21.00;99.90
59923;DHT22;45778;51.142;3.732;2023-05-07T10:50:39;21.20;99.90
59923;DHT22;45778;51.142;3.732;2023-05-07T10:53:26;20.80;99.90
59923;DHT22;45778;51.142;3.732;2023-05-07T10:58:42;21.60;99.90
59923;DHT22;45778;51.142;3.732;2023-05-07T11:01:07;21.70;99.90
59923;DHT22;45778;51.142;3.732;2023-05-07T11:03:33;21.00;99.90
59923;DHT22;45778;51.142;3.732;2023-05-07T11:06:15;21.80;99.90
59923;DHT22;45778;51.142;3.732;2023-05-07T11:11:16;21.80;99.90
59923;DHT22;45778;51.142;3.732;2023-05-07T11:13:48;22.50;99.90
59923;DHT22;45778;51.142;3.732;2023-05-07T11:16:24;22.20;99.90
59923;DHT22;45778;51.142;3.732;2023-05-07T11:18:56;22.30;99.90
59923;DHT22;45778;51.142;3.732;2023-05-07T11:21:38;22.30;99.90
59923;DHT22;45778;51.142;3.732;2023-05-07T11:24:05;21.80;99.90
59923;DHT22;45778;51.142;3.732;2023-05-07T11:29:17;21.80;99.90
59923;DHT22;45778;51.142;3.732;2023-05-07T11:31:43;21.00;99.90
59923;DHT22;45778;51.142;3.732;2023-05-07T11:34:09;21.00;99.90
59923;DHT22;45778;51.142;3.732;2023-05-07T11:36:42;21.00;99.90
59923;DHT22;45778;51.142;3.732;2023-05-07T11:39:32;21.10;99.90
59923;DHT22;45778;51.142;3.732;2023-05-07T11:42:01;21.00;99.90
59923;DHT22;45778;51.142;3.732;2023-05-07T11:44:43;20.70;99.90
59923;DHT22;45778;51.142;3.732;2023-05-07T11:47:10;21.20;99.90
59923;DHT22;45778;51.142;3.732;2023-05-07T11:49:36;21.30;99.90
59923;DHT22;45778;51.142;3.732;2023-05-07T11:52:02;21.50;99.90
59923;DHT22;45778;51.142;3.732;2023-05-07T11:54:35;21.80;99.90
59923;DHT22;45778;51.142;3.732;2023-05-07T11:57:02;21.60;99.90
59923;DHT22;45778;51.142;3.732;2023-05-07T11:59:27;21.00;99.90
59923;DHT22;45778;51.142;3.732;2023-05-07T12:01:57;21.30;99.90
59923;DHT22;45778;51.142;3.732;2023-05-07T12:04:23;20.90;99.90
59923;DHT22;45778;51.142;3.732;2023-05-07T12:06:48;21.30;99.90
59923;DHT22;45778;51.142;3.732;2023-05-07T12:09:16;21.40;99.90
59923;DHT22;45778;51.142;3.732;2023-05-07T12:11:45;21.50;99.90
59923;DHT22;45778;51.142;3.732;2023-05-07T12:14:11;22.00;99.90
59923;DHT22;45778;51.142;3.732;2023-05-07T12:16:38;22.50;99.90
59923;DHT22;45778;51.142;3.732;2023-05-07T12:19:05;22.30;99.90
59923;DHT22;45778;51.142;3.732;2023-05-07T12:21:33;21.90;99.90
59923;DHT22;45778;51.142;3.732;2023-05-07T12:23:59;21.90;99.90
59923;DHT22;45778;51.142;3.732;2023-05-07T12:26:25;21.80;99.90
59923;DHT22;45778;51.142;3.732;2023-05-07T12:28:50;22.00;99.90
59923;DHT22;45778;51.142;3.732;2023-05-07T12:31:16;21.10;99.90
59923;DHT22;45778;51.142;3.732;2023-05-07T12:33:42;20.90;99.90
59923;DHT22;45778;51.142;3.732;2023-05-07T12:36:07;20.90;99.90
59923;DHT22;45778;51.142;3.732;2023-05-07T12:38:40;20.80;99.90
59923;DHT22;45778;51.142;3.732;2023-05-07T12:41:10;20.70;99.90
59923;DHT22;45778;51.142;3.732;2023-05-07T12:43:37;21.10;99.90
59923;DHT22;45778;51.142;3.732;2023-05-07T12:46:07;21.60;99.90
59923;DHT22;45778;51.142;3.732;2023-05-07T12:48:33;21.80;99.90
59923;DHT22;45778;51.142;3.732;2023-05-07T12:51:02;21.40;99.90
59923;DHT22;45778;51.142;3.732;2023-05-07T12:53:30;21.70;99.90
59923;DHT22;45778;51.142;3.732;2023-05-07T12:55:58;21.60;99.90
59923;DHT22;45778;51.142;3.732;2023-05-07T12:58:28;22.10;99.90
59923;DHT22;45778;51.142;3.732;2023-05-07T13:00:54;22.30;99.90
59923;DHT22;45778;51.142;3.732;2023-05-07T13:03:25;22.70;99.90
59923;DHT22;45778;51.142;3.732;2023-05-07T13:05:52;22.40;99.90
59923;DHT22;45778;51.142;3.732;2023-05-07T13:08:32;23.00;99.90
59923;DHT22;45778;51.142;3.732;2023-05-07T13:11:02;23.30;99.90
59923;DHT22;45778;51.142;3.732;2023-05-07T13:13:33;23.10;99.90
59923;DHT22;45778;51.142;3.732;2023-05-07T13:15:59;23.30;99.90
59923;DHT22;45778;51.142;3.732;2023-05-07T13:18:26;23.30;99.90
59923;DHT22;45778;51.142;3.732;2023-05-07T13:20:55;23.30;99.90
59923;DHT22;45778;51.142;3.732;2023-05-07T13:23:21;23.40;99.90
59923;DHT22;45778;51.142;3.732;2023-05-07T13:25:47;23.70;99.90
59923;DHT22;45778;51.142;3.732;2023-05-07T13:28:13;23.70;99.90
59923;DHT22;45778;51.142;3.732;2023-05-07T13:30:39;23.80;99.90
59923;DHT22;45778;51.142;3.732;2023-05-07T13:33:06;24.40;99.90
59923;DHT22;45778;51.142;3.732;2023-05-07T13:35:32;25.00;99.90
59923;DHT22;45778;51.142;3.732;2023-05-07T13:37:58;25.40;99.90
59923;DHT22;45778;51.142;3.732;2023-05-07T13:40:24;26.00;98.90
59923;DHT22;45778;51.142;3.732;2023-05-07T13:42:50;26.80;97.60
59923;DHT22;45778;51.142;3.732;2023-05-07T13:45:19;26.40;96.90
59923;DHT22;45778;51.142;3.732;2023-05-07T13:47:46;25.70;97.80
59923;DHT22;45778;51.142;3.732;2023-05-07T13:50:12;25.40;98.90
59923;DHT22;45778;51.142;3.732;2023-05-07T13:52:42;24.10;99.90
59923;DHT22;45778;51.142;3.732;2023-05-07T13:55:09;24.00;99.90
59923;DHT22;45778;51.142;3.732;2023-05-07T13:57:36;24.20;99.90
59923;DHT22;45778;51.142;3.732;2023-05-07T14:00:03;24.30;99.90
59923;DHT22;45778;51.142;3.732;2023-05-07T14:02:30;24.10;99.90
59923;DHT22;45778;51.142;3.732;2023-05-07T14:04:56;23.80;99.90
59923;DHT22;45778;51.142;3.732;2023-05-07T14:07:22;23.00;99.90
59923;DHT22;45778;51.142;3.732;2023-05-07T14:09:47;22.70;99.90
59923;DHT22;45778;51.142;3.732;2023-05-07T14:12:13;23.00;99.90
59923;DHT22;45778;51.142;3.732;2023-05-07T14:14:39;22.60;99.90
59923;DHT22;45778;51.142;3.732;2023-05-07T14:17:04;22.60;99.90
59923;DHT22;45778;51.142;3.732;2023-05-07T14:19:30;22.60;99.90
59923;DHT22;45778;51.142;3.732;2023-05-07T14:21:55;22.00;99.90
59923;DHT22;45778;51.142;3.732;2023-05-07T14:24:21;22.10;99.90
59923;DHT22;45778;51.142;3.732;2023-05-07T14:26:47;21.80;99.90
59923;DHT22;45778;51.142;3.732;2023-05-07T14:29:12;21.90;99.90
59923;DHT22;45778;51.142;3.732;2023-05-07T14:31:38;22.00;99.90
59923;DHT22;45778;51.142;3.732;2023-05-07T14:34:05;21.60;99.90
59923;DHT22;45778;51.142;3.732;2023-05-07T14:36:30;21.30;99.90
59923;DHT22;45778;51.142;3.732;2023-05-07T14:38:57;21.00;99.90
59923;DHT22;45778;51.142;3.732;2023-05-07T14:41:24;20.90;99.90
59923;DHT22;45778;51.142;3.732;2023-05-07T14:43:50;20.70;99.90
59923;DHT22;45778;51.142;3.732;2023-05-07T14:46:17;20.40;99.90
59923;DHT22;45778;51.142;3.732;2023-05-07T14:48:44;20.30;99.90
59923;DHT22;45778;51.142;3.732;2023-05-07T14:51:10;20.00;99.90
59923;DHT22;45778;51.142;3.732;2023-05-07T14:53:36;19.60;99.90
59923;DHT22;45778;51.142;3.732;2023-05-07T14:56:02;19.50;99.90
59923;DHT22;45778;51.142;3.732;2023-05-07T14:58:28;19.20;99.90
59923;DHT22;45778;51.142;3.732;2023-05-07T15:00:54;19.30;99.90
59923;DHT22;45778;51.142;3.732;2023-05-07T15:03:20;19.40;99.90
59923;DHT22;45778;51.142;3.732;2023-05-07T15:05:45;19.40;99.90
59923;DHT22;45778;51.142;3.732;2023-05-07T15:08:11;19.50;99.90
59923;DHT22;45778;51.142;3.732;2023-05-07T15:10:38;19.20;99.90
59923;DHT22;45778;51.142;3.732;2023-05-07T15:13:10;19.10;99.90
59923;DHT22;45778;51.142;3.732;2023-05-07T15:15:36;19.00;99.90
59923;DHT22;45778;51.142;3.732;2023-05-07T15:18:02;18.90;99.90
59923;DHT22;45778;51.142;3.732;2023-05-07T15:20:28;19.20;99.90
59923;DHT22;45778;51.142;3.732;2023-05-07T15:22:54;19.20;99.90
59923;DHT22;45778;51.142;3.732;2023-05-07T15:25:20;19.30;99.90
59923;DHT22;45778;51.142;3.732;2023-05-07T15:27:46;19.40;99.90
59923;DHT22;45778;51.142;3.732;2023-05-07T15:30:12;19.30;99.90
59923;DHT22;45778;51.142;3.732;2023-05-07T15:32:40;19.10;99.90
59923;DHT22;45778;51.142;3.732;2023-05-07T15:35:06;19.30;99.90
59923;DHT22;45778;51.142;3.732;2023-05-07T15:37:32;19.60;99.90
59923;DHT22;45778;51.142;3.732;2023-05-07T15:39:57;19.70;99.90